createdAt,value
2022-11-12T00:01:58.270Z,30.00
2022-11-12T00:04:52.933Z,28.80
2022-11-12T00:07:49.384Z,31.50
2022-11-12T00:10:44.531Z,29.00
2022-11-12T00:13:39.117Z,32.40
2022-11-12T00:16:33.799Z,29.10
2022-11-12T00:19:28.493Z,27.30
2022-11-12T00:22:23.677Z,30.20
2022-11-12T00:25:18.673Z,28.20
2022-11-12T00:28:14.650Z,27.60
2022-11-12T00:31:15.396Z,30.60
2022-11-12T00:34:09.780Z,29.80
2022-11-12T00:37:05.183Z,28.20
2022-11-12T00:40:00.007Z,28.60
2022-11-12T00:42:56.371Z,27.40
2022-11-12T00:45:50.838Z,27.50
2022-11-12T00:48:45.198Z,31.40
2022-11-12T00:51:40.009Z,31.20
2022-11-12T00:54:34.281Z,26.10
2022-11-12T00:57:29.092Z,34.00
2022-11-12T01:00:25.069Z,31.30
2022-11-12T01:03:19.695Z,29.70
2022-11-12T01:06:18.405Z,25.90
2022-11-12T01:09:13.464Z,30.20
2022-11-12T01:12:09.019Z,34.20
2022-11-12T01:15:03.697Z,28.00
2022-11-12T01:17:59.093Z,30.50
2022-11-12T01:20:53.687Z,32.80
2022-11-12T01:23:48.314Z,33.00
2022-11-12T01:26:44.057Z,31.30
2022-11-12T01:29:38.814Z,27.40
2022-11-12T01:32:37.850Z,29.20
2022-11-12T01:35:32.738Z,27.80
2022-11-12T01:38:28.066Z,34.00
2022-11-12T01:41:27.753Z,34.50
2022-11-12T01:44:26.983Z,32.80
2022-11-12T01:47:29.334Z,26.30
2022-11-12T01:53:27.792Z,25.00
2022-11-12T01:56:25.418Z,28.40
2022-11-12T01:59:26.697Z,28.40
2022-11-12T02:02:21.896Z,29.80
2022-11-12T02:05:18.705Z,29.20
2022-11-12T02:08:15.307Z,31.40
2022-11-12T02:11:20.994Z,35.60
2022-11-12T02:14:17.047Z,28.80
2022-11-12T02:17:12.060Z,28.20
2022-11-12T02:20:09.644Z,28.10
2022-11-12T02:23:04.600Z,30.30
2022-11-12T02:26:00.856Z,30.50
2022-11-12T02:28:55.433Z,32.60
2022-11-12T02:31:50.234Z,30.80
2022-11-12T02:34:45.560Z,28.40
2022-11-12T02:37:40.066Z,32.20
2022-11-12T02:40:35.408Z,35.30
2022-11-12T02:43:30.368Z,31.60
2022-11-12T02:46:25.462Z,32.20
2022-11-12T02:49:20.141Z,30.70
2022-11-12T02:52:15.241Z,29.20
2022-11-12T02:55:13.228Z,29.40
2022-11-12T02:58:07.879Z,34.30
2022-11-12T03:01:02.573Z,34.30
2022-11-12T03:03:57.421Z,32.20
2022-11-12T03:06:52.616Z,31.80
2022-11-12T03:09:47.418Z,35.80
2022-11-12T03:12:42.118Z,34.20
2022-11-12T03:15:37.003Z,30.40
2022-11-12T03:18:31.790Z,33.30
2022-11-12T03:21:26.472Z,32.80
2022-11-12T03:24:21.416Z,35.50
2022-11-12T03:27:16.552Z,33.50
2022-11-12T03:30:13.559Z,35.00
2022-11-12T03:33:10.485Z,34.20
2022-11-12T03:36:06.645Z,34.40
2022-11-12T03:39:00.954Z,36.20
2022-11-12T03:41:55.847Z,36.00
2022-11-12T03:44:50.925Z,36.70
2022-11-12T03:47:50.383Z,34.00
2022-11-12T03:50:45.284Z,35.10
2022-11-12T03:53:40.178Z,36.20
2022-11-12T03:56:34.879Z,32.80
2022-11-12T03:59:29.268Z,35.70
2022-11-12T04:02:25.683Z,38.90
2022-11-12T04:05:38.352Z,32.50
2022-11-12T04:08:39.396Z,34.80
2022-11-12T04:11:34.089Z,32.80
2022-11-12T04:14:28.941Z,41.60
2022-11-12T04:17:41.122Z,34.70
2022-11-12T04:20:53.320Z,36.60
2022-11-12T04:23:47.798Z,35.00
2022-11-12T04:26:42.490Z,34.30
2022-11-12T04:29:54.564Z,36.20
2022-11-12T04:32:56.972Z,29.30
2022-11-12T04:35:51.498Z,34.50
2022-11-12T04:38:45.847Z,34.80
2022-11-12T04:41:54.613Z,37.80
2022-11-12T04:45:02.755Z,33.40
2022-11-12T04:47:57.360Z,38.80
2022-11-12T04:50:57.874Z,34.10
2022-11-12T04:53:52.330Z,30.00
2022-11-12T04:56:47.200Z,34.40
2022-11-12T04:59:41.715Z,27.80
2022-11-12T05:02:36.597Z,31.40
2022-11-12T05:05:33.803Z,31.60
2022-11-12T05:08:29.255Z,34.40
2022-11-12T05:11:24.643Z,29.50
2022-11-12T05:14:19.438Z,34.10
2022-11-12T05:17:14.017Z,30.70
2022-11-12T05:20:11.437Z,31.40
2022-11-12T05:23:07.357Z,30.20
2022-11-12T05:26:02.572Z,35.30
2022-11-12T05:28:57.163Z,41.40
2022-11-12T05:31:51.805Z,34.70
2022-11-12T05:34:46.932Z,31.30
2022-11-12T05:37:41.825Z,31.80
2022-11-12T05:40:37.299Z,38.60
2022-11-12T05:43:32.001Z,30.50
2022-11-12T05:46:27.408Z,31.90
2022-11-12T05:49:22.296Z,37.20
2022-11-12T05:52:16.863Z,45.30
2022-11-12T05:55:13.440Z,32.90
2022-11-12T05:58:11.406Z,32.80
2022-11-12T06:01:07.257Z,40.00
2022-11-12T06:04:02.266Z,42.10
2022-11-12T06:06:56.528Z,52.40
2022-11-12T06:09:50.911Z,61.50
2022-11-12T06:12:45.386Z,63.60
2022-11-12T06:15:39.870Z,66.70
2022-11-12T06:18:34.213Z,94.40
2022-11-12T06:21:28.944Z,76.90
2022-11-12T06:24:24.476Z,78.80
2022-11-12T06:27:19.142Z,72.00
2022-11-12T06:30:15.866Z,61.30
2022-11-12T06:33:10.754Z,68.30
2022-11-12T06:36:08.030Z,56.90
2022-11-12T06:39:02.378Z,52.70
2022-11-12T06:41:57.306Z,52.80
2022-11-12T06:44:51.723Z,42.80
2022-11-12T06:47:46.500Z,45.70
2022-11-12T06:50:41.330Z,45.00
2022-11-12T06:53:35.574Z,42.70
2022-11-12T06:56:30.150Z,41.30
2022-11-12T06:59:24.851Z,37.70
2022-11-12T07:02:19.773Z,39.70
2022-11-12T07:05:15.042Z,38.20
2022-11-12T07:08:10.717Z,38.40
2022-11-12T07:11:06.203Z,37.80
2022-11-12T07:14:00.675Z,37.90
2022-11-12T07:16:55.810Z,45.10
2022-11-12T07:19:50.397Z,39.50
2022-11-12T07:22:44.866Z,37.10
2022-11-12T07:25:39.960Z,36.40
2022-11-12T07:28:34.825Z,32.30
2022-11-12T07:31:29.455Z,30.90
2022-11-12T07:34:24.073Z,37.10
2022-11-12T07:37:18.592Z,32.10
2022-11-12T07:40:16.263Z,29.60
2022-11-12T07:43:11.106Z,32.10
2022-11-12T07:46:10.975Z,28.40
2022-11-12T07:49:06.225Z,28.90
2022-11-12T07:52:00.667Z,26.70
2022-11-12T07:54:55.500Z,31.70
2022-11-12T07:57:50.170Z,32.30
2022-11-12T08:00:44.896Z,28.90
2022-11-12T08:03:39.648Z,25.40
2022-11-12T08:06:35.937Z,27.60
2022-11-12T08:09:30.877Z,28.40
2022-11-12T08:12:25.413Z,27.50
2022-11-12T08:15:20.618Z,30.90
2022-11-12T08:18:15.011Z,23.10
2022-11-12T08:21:14.467Z,22.60
2022-11-12T08:24:10.824Z,27.90
2022-11-12T08:27:05.506Z,25.50
2022-11-12T08:30:00.018Z,28.00
2022-11-12T08:33:01.483Z,27.30
2022-11-12T08:35:55.857Z,24.60
2022-11-12T08:38:53.269Z,26.70
2022-11-12T08:41:47.897Z,23.70
2022-11-12T08:44:42.775Z,25.60
2022-11-12T08:47:36.987Z,28.90
2022-11-12T08:50:32.715Z,27.90
2022-11-12T08:53:28.929Z,27.10
2022-11-12T08:56:23.629Z,28.00
2022-11-12T08:59:18.090Z,27.70
2022-11-12T09:02:17.854Z,27.10
2022-11-12T09:05:13.693Z,29.70
2022-11-12T09:08:11.762Z,27.60
2022-11-12T09:11:06.860Z,27.60
2022-11-12T09:14:01.332Z,25.50
2022-11-12T09:16:56.456Z,27.40
2022-11-12T09:19:51.634Z,27.40
2022-11-12T09:22:45.970Z,27.30
2022-11-12T09:25:42.397Z,26.20
2022-11-12T09:28:37.127Z,27.00
2022-11-12T09:31:33.104Z,25.40
2022-11-12T09:34:27.628Z,26.90
2022-11-12T09:37:22.297Z,28.00
2022-11-12T09:40:23.771Z,25.60
2022-11-12T09:46:39.066Z,29.70
2022-11-12T09:49:42.301Z,26.50
2022-11-12T09:52:38.312Z,29.30
2022-11-12T09:55:40.813Z,33.50
2022-11-12T09:58:36.564Z,33.00
2022-11-12T10:01:51.426Z,30.30
2022-11-12T10:05:18.991Z,30.60
2022-11-12T10:08:41.469Z,31.80
2022-11-12T10:12:32.536Z,30.60
2022-11-12T10:16:16.122Z,22.90
2022-11-12T10:19:35.166Z,25.90
2022-11-12T10:22:54.334Z,25.90
2022-11-12T10:25:54.020Z,26.10
2022-11-12T10:28:59.010Z,27.50
2022-11-12T10:31:53.467Z,22.00
2022-11-12T10:34:48.292Z,22.30
2022-11-12T10:37:51.773Z,23.80
2022-11-12T10:40:46.976Z,22.60
2022-11-12T10:43:56.586Z,17.50
2022-11-12T10:46:51.472Z,20.90
2022-11-12T10:50:00.373Z,18.50
2022-11-12T10:53:05.258Z,19.70
2022-11-12T10:56:06.082Z,20.00
2022-11-12T10:59:20.375Z,23.80
2022-11-12T11:02:22.572Z,18.30
2022-11-12T11:05:49.897Z,16.00
2022-11-12T11:08:49.303Z,18.60
2022-11-12T11:11:54.668Z,12.90
2022-11-12T11:15:05.454Z,15.20
2022-11-12T11:18:00.503Z,13.40
2022-11-12T11:21:09.800Z,12.80
2022-11-12T11:24:22.808Z,15.00
2022-11-12T11:27:34.597Z,16.30
2022-11-12T11:30:29.538Z,13.30
2022-11-12T11:33:44.002Z,15.70
2022-11-12T11:36:51.390Z,18.70
2022-11-12T11:40:00.464Z,13.90
2022-11-12T11:43:22.051Z,13.50
2022-11-12T11:46:34.972Z,17.80
2022-11-12T11:50:06.415Z,14.50
2022-11-12T11:53:20.732Z,16.70
2022-11-12T11:56:27.416Z,14.80
2022-11-12T11:59:42.217Z,11.30
2022-11-12T12:03:08.485Z,18.20
2022-11-12T12:06:24.686Z,39.00
2022-11-12T12:09:38.556Z,22.00
2022-11-12T12:12:55.136Z,19.60
2022-11-12T12:16:19.081Z,14.80
2022-11-12T12:19:34.342Z,14.70
2022-11-12T12:22:41.932Z,14.10
2022-11-12T12:25:43.076Z,13.50
2022-11-12T12:28:48.275Z,13.70
2022-11-12T12:31:50.579Z,14.30
2022-11-12T12:34:50.031Z,13.40
2022-11-12T12:37:58.112Z,16.60
2022-11-12T12:41:03.853Z,13.00
2022-11-12T12:44:06.608Z,14.40
2022-11-12T12:47:05.164Z,18.20
2022-11-12T12:50:04.668Z,19.50
2022-11-12T12:53:35.223Z,14.70
2022-11-12T12:56:52.178Z,18.00
2022-11-12T12:59:46.964Z,18.00
2022-11-12T13:02:44.089Z,17.70
2022-11-12T13:05:40.753Z,19.70
2022-11-12T13:08:40.529Z,17.90
2022-11-12T13:12:15.128Z,15.60
2022-11-12T13:15:18.988Z,18.50
2022-11-12T13:19:00.761Z,18.50
2022-11-12T13:22:51.784Z,19.40
2022-11-12T13:25:46.473Z,17.60
2022-11-12T13:29:18.501Z,18.30
2022-11-12T13:32:56.724Z,19.70
2022-11-12T13:35:51.494Z,22.10
2022-11-12T13:38:47.104Z,21.10
2022-11-12T13:41:59.527Z,21.70
2022-11-12T13:44:56.261Z,23.00
2022-11-12T13:47:52.856Z,16.90
2022-11-12T13:50:57.346Z,29.40
2022-11-12T13:53:52.206Z,17.30
2022-11-12T13:56:46.519Z,18.40
2022-11-12T13:59:40.772Z,37.30
2022-11-12T14:02:41.320Z,22.40
2022-11-12T14:05:39.431Z,40.20
2022-11-12T14:09:09.445Z,30.40
2022-11-12T14:12:47.056Z,27.80
2022-11-12T14:16:24.022Z,21.60
2022-11-12T14:20:04.091Z,17.30
2022-11-12T14:23:05.112Z,18.50
2022-11-12T14:26:01.011Z,18.20
2022-11-12T14:29:01.788Z,19.30
2022-11-12T14:32:09.967Z,41.40
2022-11-12T14:35:19.923Z,18.50
2022-11-12T14:38:22.376Z,18.70
2022-11-12T14:41:25.617Z,17.20
2022-11-12T14:44:29.400Z,17.10
2022-11-12T14:47:24.610Z,17.50
2022-11-12T14:50:26.387Z,16.70
2022-11-12T14:56:35.909Z,19.00
2022-11-12T14:59:32.199Z,19.50
2022-11-12T15:02:48.916Z,18.10
2022-11-12T15:06:12.294Z,15.10
2022-11-12T15:09:07.562Z,19.70
2022-11-12T15:12:02.881Z,18.80
2022-11-12T15:15:08.994Z,19.80
2022-11-12T15:18:07.621Z,18.70
2022-11-12T15:21:21.523Z,16.60
2022-11-12T15:24:30.519Z,16.80
2022-11-12T15:27:43.388Z,19.00
2022-11-12T15:30:39.036Z,17.90
2022-11-12T15:33:33.678Z,16.00
2022-11-12T15:36:28.801Z,18.60
2022-11-12T15:39:25.280Z,16.60
2022-11-12T15:42:29.693Z,18.90
2022-11-12T15:45:26.186Z,47.80
2022-11-12T15:48:21.404Z,22.60
2022-11-12T15:51:18.572Z,20.50
2022-11-12T15:54:12.792Z,22.10
2022-11-12T15:57:09.481Z,19.90
2022-11-12T16:00:11.715Z,17.50
2022-11-12T16:03:17.298Z,18.70
2022-11-12T16:06:14.894Z,20.90
2022-11-12T16:09:09.603Z,19.30
2022-11-12T16:12:05.281Z,18.90
2022-11-12T16:15:01.424Z,23.20
2022-11-12T16:17:57.338Z,29.10
2022-11-12T16:20:51.923Z,28.10
2022-11-12T16:23:46.801Z,35.00
2022-11-12T16:26:42.444Z,38.50
2022-11-12T16:29:37.562Z,34.60
2022-11-12T16:32:32.292Z,39.10
2022-11-12T16:35:28.207Z,45.90
2022-11-12T16:38:25.802Z,45.40
2022-11-12T16:41:20.420Z,40.70
2022-11-12T16:44:15.837Z,39.50
2022-11-12T16:47:13.683Z,38.10
2022-11-12T16:50:12.495Z,46.10
2022-11-12T16:53:07.396Z,38.20
2022-11-12T16:56:03.917Z,44.40
2022-11-12T16:58:59.707Z,41.00
2022-11-12T17:01:54.583Z,44.50
2022-11-12T17:04:50.299Z,49.30
2022-11-12T17:07:47.026Z,38.70
2022-11-12T17:10:43.984Z,40.30
2022-11-12T17:13:44.826Z,44.70
2022-11-12T17:16:45.065Z,42.90
2022-11-12T17:19:42.269Z,43.40
2022-11-12T17:22:36.960Z,49.10
2022-11-12T17:25:31.581Z,45.80
2022-11-12T17:28:26.772Z,46.60
2022-11-12T17:31:26.147Z,43.10
2022-11-12T17:34:20.899Z,42.90
2022-11-12T17:37:15.743Z,46.30
2022-11-12T17:40:13.184Z,47.90
2022-11-12T17:43:15.404Z,50.30
2022-11-12T17:46:14.690Z,52.00
2022-11-12T17:49:10.177Z,53.50
2022-11-12T17:52:04.919Z,55.10
2022-11-12T17:54:59.566Z,61.60
2022-11-12T17:57:55.764Z,59.90
2022-11-12T18:00:51.763Z,56.20
2022-11-12T18:03:50.427Z,52.60
2022-11-12T18:06:44.894Z,55.10
2022-11-12T18:09:39.793Z,52.10
2022-11-12T18:12:35.499Z,58.50
2022-11-12T18:15:31.739Z,51.70
2022-11-12T18:18:26.373Z,53.50
2022-11-12T18:21:21.651Z,49.80
2022-11-12T18:24:20.042Z,53.70
2022-11-12T18:27:15.514Z,50.80
2022-11-12T18:30:18.979Z,51.90
2022-11-12T18:33:14.721Z,46.20
2022-11-12T18:36:14.347Z,50.50
2022-11-12T18:39:09.801Z,46.40
2022-11-12T18:42:04.366Z,49.10
2022-11-12T18:44:59.155Z,47.50
2022-11-12T18:47:53.647Z,39.90
2022-11-12T18:50:48.208Z,43.60
2022-11-12T18:53:43.928Z,44.40
2022-11-12T18:56:40.181Z,43.50
2022-11-12T18:59:34.799Z,50.10
2022-11-12T19:02:29.621Z,45.80
2022-11-12T19:05:24.779Z,44.90
2022-11-12T19:08:19.834Z,41.80
2022-11-12T19:11:18.696Z,46.30
2022-11-12T19:14:13.788Z,47.90
2022-11-12T19:17:08.328Z,52.10
2022-11-12T19:20:02.946Z,44.10
2022-11-12T19:22:57.720Z,45.10
2022-11-12T19:25:52.342Z,50.60
2022-11-12T19:28:47.674Z,46.30
2022-11-12T19:31:42.562Z,49.20
2022-11-12T19:34:37.591Z,49.40
2022-11-12T19:37:33.884Z,44.70
2022-11-12T19:40:28.738Z,48.50
2022-11-12T19:43:24.716Z,46.50
2022-11-12T19:46:19.941Z,47.90
2022-11-12T19:49:17.305Z,45.30
2022-11-12T19:52:12.512Z,55.20
2022-11-12T19:55:08.829Z,50.20
2022-11-12T19:58:03.335Z,49.00
2022-11-12T20:01:03.664Z,46.20
2022-11-12T20:03:58.510Z,41.50
2022-11-12T20:06:53.714Z,43.30
2022-11-12T20:09:48.421Z,41.90
2022-11-12T20:12:44.217Z,43.20
2022-11-12T20:15:40.308Z,45.20
2022-11-12T20:18:35.405Z,43.30
2022-11-12T20:21:31.044Z,45.30
2022-11-12T20:24:26.106Z,44.20
2022-11-12T20:27:20.895Z,46.40
2022-11-12T20:30:17.342Z,44.60
2022-11-12T20:33:15.170Z,50.20
2022-11-12T20:36:13.932Z,50.30
2022-11-12T20:39:08.715Z,46.60
2022-11-12T20:42:03.496Z,44.70
2022-11-12T20:44:58.222Z,39.60
2022-11-12T20:47:53.339Z,47.00
2022-11-12T20:51:16.787Z,54.20
2022-11-12T20:54:03.613Z,38.00
2022-11-12T20:56:59.967Z,45.70
2022-11-12T20:59:58.437Z,46.10
2022-11-12T21:02:53.124Z,56.70
2022-11-12T21:05:47.858Z,50.40
2022-11-12T21:08:44.315Z,44.70
2022-11-12T21:11:38.714Z,49.20
2022-11-12T21:14:33.335Z,48.80
2022-11-12T21:17:28.177Z,47.10
2022-11-12T21:20:23.275Z,51.70
2022-11-12T21:23:17.846Z,53.00
2022-11-12T21:26:16.884Z,49.80
2022-11-12T21:29:13.523Z,61.20
2022-11-12T21:32:10.266Z,53.80
2022-11-12T21:35:05.195Z,58.00
2022-11-12T21:37:59.689Z,58.50
2022-11-12T21:41:01.730Z,53.90
2022-11-12T21:43:56.586Z,48.90
2022-11-12T21:46:51.132Z,54.90
2022-11-12T21:49:45.861Z,54.30
2022-11-12T21:52:41.570Z,52.10
2022-11-12T21:55:36.376Z,60.30
2022-11-12T21:58:32.579Z,54.20
2022-11-12T22:01:30.355Z,52.50
2022-11-12T22:04:25.171Z,50.80
2022-11-12T22:07:19.813Z,54.10
2022-11-12T22:10:15.103Z,60.30
2022-11-12T22:13:26.309Z,59.50
2022-11-12T22:19:19.427Z,57.70
2022-11-12T22:22:14.451Z,58.80
2022-11-12T22:25:10.493Z,51.50
2022-11-12T22:28:05.195Z,70.10
2022-11-12T22:31:05.814Z,68.70
2022-11-12T22:34:02.417Z,67.80
2022-11-12T22:36:57.308Z,68.30
2022-11-12T22:39:51.617Z,94.10
2022-11-12T22:42:46.044Z,74.40
2022-11-12T22:45:41.701Z,72.90
2022-11-12T22:48:36.866Z,68.30
2022-11-12T22:51:34.696Z,71.20
2022-11-12T22:54:29.272Z,63.70
2022-11-12T22:57:23.712Z,69.90
2022-11-12T23:00:31.803Z,57.00
2022-11-12T23:03:26.792Z,51.60
2022-11-12T23:06:22.771Z,50.80
2022-11-12T23:09:20.383Z,51.50
2022-11-12T23:12:15.153Z,48.30
2022-11-12T23:15:14.026Z,45.30
2022-11-12T23:18:08.853Z,52.70
2022-11-12T23:21:15.058Z,49.70
2022-11-12T23:24:10.787Z,54.80
2022-11-12T23:27:05.383Z,59.70
2022-11-12T23:29:59.898Z,72.20
2022-11-12T23:32:54.835Z,67.20
2022-11-12T23:35:49.226Z,63.30
2022-11-12T23:38:44.115Z,58.70
2022-11-12T23:41:38.341Z,58.70
2022-11-12T23:44:32.860Z,56.10
2022-11-12T23:47:27.588Z,55.20
2022-11-12T23:50:22.746Z,58.20
2022-11-12T23:53:17.280Z,48.40
2022-11-12T23:56:16.028Z,51.50
2022-11-12T23:59:10.653Z,49.70
